createdAt,value
2022-09-10T00:00:13.161Z,13.26
2022-09-10T00:03:17.646Z,13.24
2022-09-10T00:06:20.833Z,13.16
2022-09-10T00:09:24.463Z,13.19
2022-09-10T00:12:27.354Z,13.20
2022-09-10T00:15:30.220Z,13.14
2022-09-10T00:18:34.803Z,13.04
2022-09-10T00:21:37.786Z,13.01
2022-09-10T00:24:41.032Z,12.99
2022-09-10T00:27:43.821Z,13.03
2022-09-10T00:30:49.862Z,13.00
2022-09-10T00:38:37.220Z,13.13
2022-09-10T00:41:41.901Z,13.06
2022-09-10T00:45:03.086Z,12.95
2022-09-10T00:48:12.072Z,12.98
2022-09-10T00:51:15.637Z,12.94
2022-09-10T00:54:22.683Z,13.04
2022-09-10T00:57:27.899Z,12.95
2022-09-10T01:00:31.944Z,12.99
2022-09-10T01:03:36.104Z,12.97
2022-09-10T01:06:40.340Z,12.86
2022-09-10T01:09:45.025Z,12.85
2022-09-10T01:13:14.182Z,12.95
2022-09-10T01:16:23.491Z,12.96
2022-09-10T01:19:58.419Z,13.04
2022-09-10T01:23:26.089Z,12.98
2022-09-10T01:26:52.518Z,12.98
2022-09-10T01:30:04.310Z,13.02
2022-09-10T01:33:15.373Z,12.88
2022-09-10T01:36:25.054Z,12.87
2022-09-10T01:39:29.187Z,12.64
2022-09-10T01:42:38.336Z,12.86
2022-09-10T01:45:59.065Z,12.90
2022-09-10T01:49:28.951Z,12.95
2022-09-10T01:52:42.274Z,13.03
2022-09-10T01:55:57.718Z,12.99
2022-09-10T01:59:10.299Z,12.92
2022-09-10T02:02:25.964Z,12.66
2022-09-10T02:05:31.680Z,12.78
2022-09-10T02:08:40.216Z,12.81
2022-09-10T02:11:48.591Z,12.81
2022-09-10T02:15:02.829Z,12.76
2022-09-10T02:18:22.326Z,12.78
2022-09-10T02:21:25.406Z,12.82
2022-09-10T02:24:28.285Z,12.78
2022-09-10T02:27:31.300Z,12.58
2022-09-10T02:30:34.226Z,12.72
2022-09-10T02:33:38.769Z,12.80
2022-09-10T02:36:41.984Z,12.82
2022-09-10T02:39:45.060Z,12.89
2022-09-10T02:42:48.181Z,12.85
2022-09-10T02:45:57.894Z,12.82
2022-09-10T02:49:02.140Z,12.79
2022-09-10T02:52:08.722Z,12.82
2022-09-10T02:55:14.107Z,12.97
2022-09-10T02:58:18.461Z,13.03
2022-09-10T03:01:24.008Z,13.04
2022-09-10T03:04:40.310Z,12.99
2022-09-10T03:07:44.903Z,12.98
2022-09-10T03:10:47.805Z,12.96
2022-09-10T03:13:52.179Z,12.94
2022-09-10T03:16:55.675Z,12.94
2022-09-10T03:20:02.082Z,12.95
2022-09-10T03:23:04.941Z,12.96
2022-09-10T03:26:08.228Z,12.93
2022-09-10T03:29:11.262Z,12.85
2022-09-10T03:32:15.436Z,12.87
2022-09-10T03:35:19.657Z,12.96
2022-09-10T03:38:23.368Z,12.87
2022-09-10T03:41:27.034Z,12.87
2022-09-10T03:44:33.556Z,12.94
2022-09-10T03:47:37.662Z,12.95
2022-09-10T03:50:44.160Z,12.97
2022-09-10T03:53:47.416Z,12.88
2022-09-10T03:56:52.175Z,12.93
2022-09-10T03:59:54.969Z,12.99
2022-09-10T04:02:58.552Z,12.98
2022-09-10T04:06:02.657Z,12.89
2022-09-10T04:09:05.479Z,12.82
2022-09-10T04:12:08.990Z,12.90
2022-09-10T04:15:13.336Z,12.91
2022-09-10T04:18:16.277Z,12.85
2022-09-10T04:21:20.592Z,12.83
2022-09-10T04:24:25.594Z,12.93
2022-09-10T04:27:28.718Z,12.91
2022-09-10T04:30:32.290Z,12.95
2022-09-10T04:33:35.259Z,13.01
2022-09-10T04:36:40.001Z,12.98
2022-09-10T04:39:44.055Z,13.04
2022-09-10T04:42:47.021Z,13.02
2022-09-10T04:45:49.834Z,13.05
2022-09-10T04:48:53.005Z,13.08
2022-09-10T04:52:00.110Z,13.10
2022-09-10T04:55:03.881Z,13.11
2022-09-10T04:58:07.313Z,13.15
2022-09-10T05:01:10.672Z,13.15
2022-09-10T05:04:13.701Z,13.15
2022-09-10T05:07:17.983Z,13.13
2022-09-10T05:10:24.435Z,13.16
2022-09-10T05:13:27.558Z,13.22
2022-09-10T05:16:30.576Z,13.17
2022-09-10T05:19:33.689Z,13.16
2022-09-10T05:22:43.105Z,13.21
2022-09-10T05:25:47.972Z,13.18
2022-09-10T05:28:53.273Z,13.24
2022-09-10T05:31:57.217Z,13.27
2022-09-10T05:35:02.145Z,13.33
2022-09-10T05:38:08.217Z,13.35
2022-09-10T05:41:13.950Z,13.41
2022-09-10T05:44:21.541Z,13.42
2022-09-10T05:47:24.401Z,13.46
2022-09-10T05:50:28.696Z,13.47
2022-09-10T05:53:33.446Z,13.50
2022-09-10T05:56:36.355Z,13.54
2022-09-10T05:59:39.810Z,13.59
2022-09-10T06:02:45.339Z,13.67
2022-09-10T06:06:01.880Z,13.70
2022-09-10T06:09:19.756Z,13.76
2022-09-10T06:12:34.218Z,13.90
2022-09-10T06:15:38.946Z,13.97
2022-09-10T06:18:44.084Z,14.06
2022-09-10T06:21:50.858Z,14.19
2022-09-10T06:24:55.551Z,14.29
2022-09-10T06:28:01.752Z,14.23
2022-09-10T06:31:05.708Z,14.20
2022-09-10T06:34:10.466Z,14.26
2022-09-10T06:37:13.432Z,14.26
2022-09-10T06:40:18.541Z,14.34
2022-09-10T06:43:23.586Z,14.42
2022-09-10T06:47:30.537Z,14.40
2022-09-10T06:50:10.443Z,14.39
2022-09-10T06:53:15.345Z,14.46
2022-09-10T06:56:20.848Z,14.62
2022-09-10T07:02:53.383Z,14.80
2022-09-10T07:05:57.705Z,14.84
2022-09-10T07:09:03.695Z,14.95
2022-09-10T07:12:12.390Z,15.00
2022-09-10T07:15:17.071Z,15.00
2022-09-10T07:18:20.502Z,15.08
2022-09-10T07:21:25.289Z,15.15
2022-09-10T07:24:28.645Z,15.28
2022-09-10T07:27:41.477Z,15.42
2022-09-10T07:30:45.295Z,15.54
2022-09-10T07:33:50.167Z,15.72
2022-09-10T07:36:56.730Z,15.75
2022-09-10T07:40:00.336Z,15.88
2022-09-10T07:43:05.097Z,15.98
2022-09-10T07:46:09.744Z,16.20
2022-09-10T07:49:13.129Z,16.15
2022-09-10T07:52:18.639Z,15.92
2022-09-10T07:55:25.968Z,15.97
2022-09-10T07:58:32.230Z,15.97
2022-09-10T08:01:36.402Z,15.91
2022-09-10T08:04:39.649Z,15.95
2022-09-10T08:07:46.584Z,15.91
2022-09-10T08:10:49.868Z,15.87
2022-09-10T08:13:56.891Z,15.86
2022-09-10T08:17:03.379Z,15.87
2022-09-10T08:20:10.884Z,15.92
2022-09-10T08:23:18.046Z,16.01
2022-09-10T08:26:24.368Z,16.13
2022-09-10T08:29:29.941Z,16.06
2022-09-10T08:32:35.275Z,16.01
2022-09-10T08:35:39.705Z,16.01
2022-09-10T08:38:43.341Z,16.06
2022-09-10T08:41:53.768Z,16.10
2022-09-10T08:45:08.245Z,16.05
2022-09-10T08:48:19.874Z,16.00
2022-09-10T08:51:28.632Z,15.94
2022-09-10T08:54:37.604Z,15.97
2022-09-10T08:57:45.124Z,15.98
2022-09-10T09:00:54.109Z,15.92
2022-09-10T09:04:03.727Z,15.90
2022-09-10T09:07:15.187Z,15.92
2022-09-10T09:10:28.240Z,16.08
2022-09-10T09:13:51.715Z,16.14
2022-09-10T09:17:13.059Z,16.13
2022-09-10T09:20:19.078Z,16.14
2022-09-10T09:23:34.374Z,16.12
2022-09-10T09:26:38.048Z,16.29
2022-09-10T09:29:47.611Z,16.36
2022-09-10T09:32:52.888Z,16.43
2022-09-10T09:36:00.136Z,16.65
2022-09-10T09:39:16.139Z,16.74
2022-09-10T09:42:25.191Z,16.72
2022-09-10T09:45:36.887Z,16.64
2022-09-10T09:48:42.471Z,16.87
2022-09-10T09:51:46.961Z,17.00
2022-09-10T09:58:35.468Z,16.91
2022-09-10T10:01:42.956Z,16.96
2022-09-10T10:05:02.537Z,17.20
2022-09-10T10:08:05.522Z,17.27
2022-09-10T10:11:09.313Z,17.25
2022-09-10T10:14:22.608Z,17.20
2022-09-10T10:17:37.865Z,17.39
2022-09-10T10:20:43.204Z,17.41
2022-09-10T10:23:46.785Z,17.89
2022-09-10T10:26:50.531Z,17.99
2022-09-10T10:29:56.661Z,18.29
2022-09-10T10:33:01.891Z,18.24
2022-09-10T10:36:16.290Z,18.12
2022-09-10T10:39:27.507Z,18.27
2022-09-10T10:42:35.639Z,18.24
2022-09-10T10:45:52.595Z,18.23
2022-09-10T10:49:07.178Z,18.27
2022-09-10T10:52:21.429Z,18.23
2022-09-10T10:55:29.275Z,18.04
2022-09-10T10:58:56.054Z,18.13
2022-09-10T11:02:08.128Z,18.22
2022-09-10T11:05:23.832Z,18.26
2022-09-10T11:08:33.716Z,18.19
2022-09-10T11:11:41.349Z,18.06
2022-09-10T11:14:49.534Z,17.79
2022-09-10T11:17:59.543Z,17.70
2022-09-10T11:21:13.057Z,17.70
2022-09-10T11:24:22.234Z,17.59
2022-09-10T11:27:30.901Z,17.99
2022-09-10T11:30:35.498Z,18.13
2022-09-10T11:33:47.276Z,18.19
2022-09-10T11:36:56.164Z,18.21
2022-09-10T11:40:05.666Z,18.12
2022-09-10T11:43:14.243Z,18.27
2022-09-10T11:46:23.568Z,18.22
2022-09-10T11:49:38.156Z,18.10
2022-09-10T11:52:41.212Z,18.06
2022-09-10T11:56:05.093Z,18.21
2022-09-10T11:59:22.312Z,18.07
2022-09-10T12:03:05.753Z,18.09
2022-09-10T12:06:16.239Z,18.31
2022-09-10T12:09:29.179Z,18.66
2022-09-10T12:12:42.367Z,18.48
2022-09-10T12:15:52.449Z,18.53
2022-09-10T12:18:57.763Z,18.58
2022-09-10T12:22:05.088Z,18.87
2022-09-10T12:25:30.413Z,19.12
2022-09-10T12:29:05.459Z,19.33
2022-09-10T12:32:30.279Z,19.41
2022-09-10T12:35:46.080Z,19.56
2022-09-10T12:38:57.792Z,19.49
2022-09-10T12:42:02.802Z,19.37
2022-09-10T12:45:09.883Z,19.29
2022-09-10T12:48:14.201Z,19.14
2022-09-10T12:51:32.961Z,18.93
2022-09-10T12:54:53.060Z,18.84
2022-09-10T12:58:01.952Z,18.74
2022-09-10T13:01:14.756Z,18.74
2022-09-10T13:04:30.441Z,18.82
2022-09-10T13:07:41.726Z,18.76
2022-09-10T13:10:47.178Z,18.57
2022-09-10T13:13:59.685Z,18.72
2022-09-10T13:17:04.319Z,18.74
2022-09-10T13:20:31.260Z,18.71
2022-09-10T13:23:48.706Z,18.64
2022-09-10T13:26:53.348Z,18.51
2022-09-10T13:30:12.012Z,18.35
2022-09-10T13:33:22.593Z,18.30
2022-09-10T13:36:34.410Z,18.09
2022-09-10T13:40:15.312Z,18.08
2022-09-10T13:43:31.724Z,18.14
2022-09-10T13:46:38.307Z,18.24
2022-09-10T13:49:52.988Z,18.23
2022-09-10T13:53:00.098Z,18.30
2022-09-10T13:56:10.200Z,18.49
2022-09-10T13:59:25.430Z,18.62
2022-09-10T14:02:41.752Z,18.58
2022-09-10T14:05:50.102Z,18.58
2022-09-10T14:08:57.395Z,18.57
2022-09-10T14:12:03.886Z,18.61
2022-09-10T14:15:08.428Z,18.82
2022-09-10T14:18:12.153Z,18.74
2022-09-10T14:21:18.004Z,18.64
2022-09-10T14:24:30.709Z,18.77
2022-09-10T14:27:35.074Z,18.68
2022-09-10T14:30:38.579Z,18.80
2022-09-10T14:33:41.556Z,18.83
2022-09-10T14:36:45.938Z,18.84
2022-09-10T14:39:49.305Z,18.86
2022-09-10T14:42:52.222Z,18.72
2022-09-10T14:45:55.205Z,18.52
2022-09-10T14:49:09.753Z,18.55
2022-09-10T14:52:14.712Z,18.48
2022-09-10T14:55:18.251Z,18.60
2022-09-10T14:58:21.099Z,18.73
2022-09-10T15:01:24.390Z,18.75
2022-09-10T15:04:28.024Z,18.60
2022-09-10T15:07:32.213Z,18.54
2022-09-10T15:10:35.308Z,18.55
2022-09-10T15:13:41.755Z,18.58
2022-09-10T15:16:44.945Z,18.74
2022-09-10T15:19:48.479Z,18.90
2022-09-10T15:22:52.760Z,18.85
2022-09-10T15:25:58.577Z,18.78
2022-09-10T15:29:01.370Z,18.77
2022-09-10T15:32:04.559Z,18.58
2022-09-10T15:35:08.791Z,18.59
2022-09-10T15:38:14.009Z,18.41
2022-09-10T15:41:17.123Z,18.23
2022-09-10T15:44:20.027Z,18.23
2022-09-10T15:47:22.927Z,18.09
2022-09-10T15:50:25.730Z,17.91
2022-09-10T15:53:33.584Z,17.67
2022-09-10T15:56:36.730Z,17.83
2022-09-10T15:59:40.660Z,17.65
2022-09-10T16:02:47.164Z,17.62
2022-09-10T16:05:49.968Z,17.53
2022-09-10T16:08:57.380Z,17.38
2022-09-10T16:12:00.287Z,17.34
2022-09-10T16:15:03.346Z,17.40
2022-09-10T16:18:06.552Z,17.30
2022-09-10T16:21:12.059Z,17.34
2022-09-10T16:24:16.180Z,17.34
2022-09-10T16:27:19.229Z,17.31
2022-09-10T16:30:22.732Z,17.12
2022-09-10T16:33:25.651Z,17.13
2022-09-10T16:36:28.526Z,17.10
2022-09-10T16:39:32.833Z,17.11
2022-09-10T16:42:35.594Z,17.04
2022-09-10T16:45:38.439Z,17.17
2022-09-10T16:48:42.864Z,17.16
2022-09-10T16:51:47.320Z,17.08
2022-09-10T16:54:52.690Z,17.11
2022-09-10T16:57:55.481Z,17.08
2022-09-10T17:00:59.362Z,17.03
2022-09-10T17:04:03.694Z,16.96
2022-09-10T17:07:06.561Z,16.98
2022-09-10T17:10:11.509Z,16.90
2022-09-10T17:13:14.407Z,16.94
2022-09-10T17:16:23.577Z,16.84
2022-09-10T17:19:27.471Z,16.88
2022-09-10T17:22:30.245Z,16.88
2022-09-10T17:25:34.962Z,16.86
2022-09-10T17:28:38.097Z,16.86
2022-09-10T17:31:41.113Z,16.80
2022-09-10T17:34:44.002Z,16.82
2022-09-10T17:37:47.126Z,16.85
2022-09-10T17:40:58.043Z,16.83
2022-09-10T17:44:01.669Z,16.86
2022-09-10T17:47:04.637Z,16.71
2022-09-10T17:50:08.535Z,16.61
2022-09-10T17:53:11.440Z,16.69
2022-09-10T17:56:18.960Z,16.60
2022-09-10T17:59:24.603Z,16.57
2022-09-10T18:02:30.019Z,16.54
2022-09-10T18:05:32.995Z,16.44
2022-09-10T18:08:36.351Z,16.41
2022-09-10T18:11:42.065Z,16.48
2022-09-10T18:14:44.818Z,16.51
2022-09-10T18:17:47.603Z,16.51
2022-09-10T18:20:50.421Z,16.43
2022-09-10T18:23:54.614Z,16.36
2022-09-10T18:27:08.156Z,16.35
2022-09-10T18:30:17.711Z,16.33
2022-09-10T18:33:24.810Z,16.31
2022-09-10T18:36:28.773Z,16.27
2022-09-10T18:39:33.616Z,16.21
2022-09-10T18:42:42.499Z,16.22
2022-09-10T18:45:48.513Z,16.25
2022-09-10T18:48:55.037Z,16.25
2022-09-10T18:51:58.578Z,16.21
2022-09-10T18:55:01.398Z,16.25
2022-09-10T18:58:09.060Z,16.22
2022-09-10T19:01:18.400Z,16.22
2022-09-10T19:04:23.784Z,16.05
2022-09-10T19:07:26.671Z,16.03
2022-09-10T19:10:30.486Z,15.96
2022-09-10T19:13:39.390Z,15.94
2022-09-10T19:16:42.479Z,15.88
2022-09-10T19:19:50.213Z,15.89
2022-09-10T19:22:53.576Z,15.90
2022-09-10T19:25:58.924Z,15.84
2022-09-10T19:29:04.511Z,15.84
2022-09-10T19:32:11.551Z,15.89
2022-09-10T19:35:18.350Z,15.94
2022-09-10T19:38:37.011Z,15.81
2022-09-10T19:41:44.601Z,15.79
2022-09-10T19:44:52.593Z,15.79
2022-09-10T19:47:58.576Z,15.69
2022-09-10T19:51:03.398Z,15.69
2022-09-10T19:54:07.687Z,15.71
2022-09-10T19:57:10.583Z,15.67
2022-09-10T20:00:36.239Z,15.68
2022-09-10T20:03:45.934Z,15.58
2022-09-10T20:06:50.333Z,15.61
2022-09-10T20:09:53.427Z,15.69
2022-09-10T20:12:57.537Z,15.77
2022-09-10T20:16:02.682Z,15.69
2022-09-10T20:19:08.022Z,15.58
2022-09-10T20:22:14.445Z,15.67
2022-09-10T20:25:22.917Z,15.71
2022-09-10T20:28:28.002Z,15.70
2022-09-10T20:31:41.216Z,15.67
2022-09-10T20:34:46.498Z,15.69
2022-09-10T20:37:51.826Z,15.70
2022-09-10T20:40:59.895Z,15.68
2022-09-10T20:44:07.864Z,15.70
2022-09-10T20:47:13.751Z,15.67
2022-09-10T20:50:19.091Z,15.70
2022-09-10T20:53:27.172Z,15.62
2022-09-10T20:56:32.754Z,15.51
2022-09-10T20:59:41.187Z,15.48
2022-09-10T21:02:46.833Z,15.48
2022-09-10T21:05:55.685Z,15.47
2022-09-10T21:08:59.570Z,15.33
2022-09-10T21:12:05.755Z,15.37
2022-09-10T21:15:12.045Z,15.36
2022-09-10T21:18:16.221Z,15.39
2022-09-10T21:21:20.831Z,15.33
2022-09-10T21:24:23.862Z,15.30
2022-09-10T21:27:26.678Z,15.27
2022-09-10T21:30:29.526Z,15.16
2022-09-10T21:33:34.425Z,15.18
2022-09-10T21:36:38.994Z,15.20
2022-09-10T21:39:41.787Z,15.25
2022-09-10T21:42:45.033Z,15.25
2022-09-10T21:45:48.240Z,15.15
2022-09-10T21:48:52.372Z,15.17
2022-09-10T21:51:55.096Z,15.20
2022-09-10T21:54:57.855Z,15.14
2022-09-10T21:58:00.673Z,15.09
2022-09-10T22:01:04.218Z,15.11
2022-09-10T22:04:08.831Z,15.14
2022-09-10T22:07:12.018Z,15.24
2022-09-10T22:10:14.798Z,15.12
2022-09-10T22:13:17.808Z,15.09
2022-09-10T22:16:22.704Z,15.04
2022-09-10T22:19:27.537Z,15.06
2022-09-10T22:22:30.299Z,15.03
2022-09-10T22:25:33.389Z,14.94
2022-09-10T22:28:37.142Z,14.90
2022-09-10T22:31:40.051Z,14.89
2022-09-10T22:34:44.199Z,14.90
2022-09-10T22:37:46.875Z,14.94
2022-09-10T22:40:51.156Z,14.97
2022-09-10T22:43:54.259Z,14.86
2022-09-10T22:46:57.614Z,14.84
2022-09-10T22:50:01.753Z,14.80
2022-09-10T22:53:04.672Z,14.78
2022-09-10T22:56:08.095Z,14.68
2022-09-10T22:59:13.683Z,14.69
2022-09-10T23:02:16.672Z,14.73
2022-09-10T23:05:20.750Z,14.66
2022-09-10T23:08:25.084Z,14.50
2022-09-10T23:11:29.290Z,14.65
2022-09-10T23:14:33.047Z,14.68
2022-09-10T23:17:35.802Z,14.64
2022-09-10T23:20:39.937Z,14.60
2022-09-10T23:23:46.465Z,14.45
2022-09-10T23:26:49.822Z,14.47
2022-09-10T23:29:52.517Z,14.39
2022-09-10T23:32:55.747Z,14.41
2022-09-10T23:36:00.036Z,14.61
2022-09-10T23:39:05.274Z,14.45
2022-09-10T23:42:08.435Z,14.28
2022-09-10T23:45:12.254Z,14.51
2022-09-10T23:48:15.018Z,14.56
2022-09-10T23:51:22.194Z,14.43
2022-09-10T23:54:25.098Z,14.33
2022-09-10T23:57:27.820Z,14.38
